sensor_id;sensor_type;location;lat;lon;timestamp;P1;durP1;ratioP1;P2;durP2;ratioP2
78820;SDS011;68171;13.882;99.692;2024-02-23T00:00:21;14.35;;;9.20;;
78820;SDS011;68171;13.882;99.692;2024-02-23T00:01:27;13.45;;;9.65;;
78820;SDS011;68171;13.882;99.692;2024-02-23T00:02:33;18.27;;;11.13;;
78820;SDS011;68171;13.882;99.692;2024-02-23T00:03:39;16.42;;;10.82;;
78820;SDS011;68171;13.882;99.692;2024-02-23T00:04:46;19.40;;;11.85;;
78820;SDS011;68171;13.882;99.692;2024-02-23T00:05:51;19.02;;;11.68;;
78820;SDS011;68171;13.882;99.692;2024-02-23T00:06:58;23.10;;;12.98;;
78820;SDS011;68171;13.882;99.692;2024-02-23T00:08:06;20.10;;;12.10;;
78820;SDS011;68171;13.882;99.692;2024-02-23T00:09:14;32.70;;;17.13;;
78820;SDS011;68171;13.882;99.692;2024-02-23T00:10:19;28.67;;;16.05;;
78820;SDS011;68171;13.882;99.692;2024-02-23T00:11:26;29.67;;;15.75;;
78820;SDS011;68171;13.882;99.692;2024-02-23T00:12:31;28.58;;;17.33;;
78820;SDS011;68171;13.882;99.692;2024-02-23T00:13:40;30.27;;;17.92;;
78820;SDS011;68171;13.882;99.692;2024-02-23T00:14:45;26.60;;;16.90;;
78820;SDS011;68171;13.882;99.692;2024-02-23T00:15:54;29.95;;;17.55;;
78820;SDS011;68171;13.882;99.692;2024-02-23T00:16:59;29.95;;;17.45;;
78820;SDS011;68171;13.882;99.692;2024-02-23T00:18:06;31.58;;;17.92;;
78820;SDS011;68171;13.882;99.692;2024-02-23T00:19:13;31.70;;;17.87;;
78820;SDS011;68171;13.882;99.692;2024-02-23T00:20:21;27.77;;;16.85;;
78820;SDS011;68171;13.882;99.692;2024-02-23T00:21:27;33.33;;;16.90;;
78820;SDS011;68171;13.882;99.692;2024-02-23T00:22:34;21.77;;;14.68;;
78820;SDS011;68171;13.882;99.692;2024-02-23T00:23:39;22.45;;;12.02;;
78820;SDS011;68171;13.882;99.692;2024-02-23T00:24:46;21.67;;;12.70;;
78820;SDS011;68171;13.882;99.692;2024-02-23T00:25:51;21.10;;;13.35;;
78820;SDS011;68171;13.882;99.692;2024-02-23T00:26:58;21.30;;;13.25;;
78820;SDS011;68171;13.882;99.692;2024-02-23T00:28:04;21.42;;;13.07;;
78820;SDS011;68171;13.882;99.692;2024-02-23T00:29:12;22.48;;;13.27;;
78820;SDS011;68171;13.882;99.692;2024-02-23T00:30:18;22.43;;;12.33;;
78820;SDS011;68171;13.882;99.692;2024-02-23T00:31:25;18.38;;;12.38;;
78820;SDS011;68171;13.882;99.692;2024-02-23T00:32:30;24.65;;;12.60;;
78820;SDS011;68171;13.882;99.692;2024-02-23T00:33:37;18.45;;;11.30;;
78820;SDS011;68171;13.882;99.692;2024-02-23T00:34:45;20.35;;;12.85;;
78820;SDS011;68171;13.882;99.692;2024-02-23T00:35:52;17.45;;;12.25;;
78820;SDS011;68171;13.882;99.692;2024-02-23T00:36:57;22.98;;;11.90;;
78820;SDS011;68171;13.882;99.692;2024-02-23T00:38:04;17.25;;;11.55;;
78820;SDS011;68171;13.882;99.692;2024-02-23T00:39:11;22.98;;;12.77;;
78820;SDS011;68171;13.882;99.692;2024-02-23T00:40:18;23.40;;;12.45;;
78820;SDS011;68171;13.882;99.692;2024-02-23T00:41:23;18.57;;;11.60;;
78820;SDS011;68171;13.882;99.692;2024-02-23T00:42:30;17.25;;;11.65;;
78820;SDS011;68171;13.882;99.692;2024-02-23T00:43:37;15.07;;;10.85;;
78820;SDS011;68171;13.882;99.692;2024-02-23T00:44:46;20.63;;;10.50;;
78820;SDS011;68171;13.882;99.692;2024-02-23T00:45:51;19.05;;;12.10;;
78820;SDS011;68171;13.882;99.692;2024-02-23T00:46:58;21.88;;;11.40;;
78820;SDS011;68171;13.882;99.692;2024-02-23T00:48:05;20.92;;;11.02;;
78820;SDS011;68171;13.882;99.692;2024-02-23T00:49:13;19.25;;;12.15;;
78820;SDS011;68171;13.882;99.692;2024-02-23T00:50:19;15.25;;;11.15;;
78820;SDS011;68171;13.882;99.692;2024-02-23T00:51:32;16.65;;;10.77;;
78820;SDS011;68171;13.882;99.692;2024-02-23T00:52:38;15.03;;;10.13;;
78820;SDS011;68171;13.882;99.692;2024-02-23T00:53:46;14.57;;;11.13;;
78820;SDS011;68171;13.882;99.692;2024-02-23T00:54:51;21.48;;;13.52;;
78820;SDS011;68171;13.882;99.692;2024-02-23T00:55:58;18.98;;;12.57;;
78820;SDS011;68171;13.882;99.692;2024-02-23T00:57:04;19.27;;;11.88;;
78820;SDS011;68171;13.882;99.692;2024-02-23T00:58:11;18.92;;;11.52;;
78820;SDS011;68171;13.882;99.692;2024-02-23T00:59:17;18.95;;;12.30;;
78820;SDS011;68171;13.882;99.692;2024-02-23T01:00:26;16.20;;;12.25;;
78820;SDS011;68171;13.882;99.692;2024-02-23T01:01:31;19.80;;;12.93;;
78820;SDS011;68171;13.882;99.692;2024-02-23T01:02:38;25.05;;;12.00;;
78820;SDS011;68171;13.882;99.692;2024-02-23T01:03:43;19.13;;;12.30;;
78820;SDS011;68171;13.882;99.692;2024-02-23T01:04:50;19.92;;;12.85;;
78820;SDS011;68171;13.882;99.692;2024-02-23T01:06:00;20.77;;;12.38;;
78820;SDS011;68171;13.882;99.692;2024-02-23T01:07:06;16.80;;;11.50;;
78820;SDS011;68171;13.882;99.692;2024-02-23T01:08:12;19.55;;;11.65;;
78820;SDS011;68171;13.882;99.692;2024-02-23T01:09:22;19.05;;;13.25;;
78820;SDS011;68171;13.882;99.692;2024-02-23T01:10:27;17.60;;;11.75;;
78820;SDS011;68171;13.882;99.692;2024-02-23T01:11:34;18.10;;;12.30;;
78820;SDS011;68171;13.882;99.692;2024-02-23T01:12:39;17.50;;;11.88;;
78820;SDS011;68171;13.882;99.692;2024-02-23T01:13:46;19.52;;;11.77;;
78820;SDS011;68171;13.882;99.692;2024-02-23T01:14:52;19.87;;;11.77;;
78820;SDS011;68171;13.882;99.692;2024-02-23T01:16:03;18.30;;;12.50;;
78820;SDS011;68171;13.882;99.692;2024-02-23T01:17:09;17.48;;;11.10;;
78820;SDS011;68171;13.882;99.692;2024-02-23T01:18:16;17.65;;;12.15;;
78820;SDS011;68171;13.882;99.692;2024-02-23T01:19:21;18.77;;;12.02;;
78820;SDS011;68171;13.882;99.692;2024-02-23T01:20:28;17.48;;;12.57;;
78820;SDS011;68171;13.882;99.692;2024-02-23T01:21:33;19.65;;;12.35;;
78820;SDS011;68171;13.882;99.692;2024-02-23T01:22:40;17.42;;;11.27;;
78820;SDS011;68171;13.882;99.692;2024-02-23T01:23:45;15.85;;;11.57;;
78820;SDS011;68171;13.882;99.692;2024-02-23T01:24:51;22.13;;;11.90;;
78820;SDS011;68171;13.882;99.692;2024-02-23T01:25:57;19.13;;;12.37;;
78820;SDS011;68171;13.882;99.692;2024-02-23T01:27:03;14.63;;;11.02;;
78820;SDS011;68171;13.882;99.692;2024-02-23T01:28:12;15.00;;;11.43;;
78820;SDS011;68171;13.882;99.692;2024-02-23T01:29:21;15.82;;;11.35;;
78820;SDS011;68171;13.882;99.692;2024-02-23T01:30:28;13.93;;;11.52;;
78820;SDS011;68171;13.882;99.692;2024-02-23T01:31:35;13.13;;;9.82;;
78820;SDS011;68171;13.882;99.692;2024-02-23T01:32:42;14.82;;;10.23;;
78820;SDS011;68171;13.882;99.692;2024-02-23T01:33:47;15.85;;;10.63;;
78820;SDS011;68171;13.882;99.692;2024-02-23T01:34:55;14.18;;;11.02;;
78820;SDS011;68171;13.882;99.692;2024-02-23T01:36:00;13.50;;;10.25;;
78820;SDS011;68171;13.882;99.692;2024-02-23T01:37:07;14.13;;;10.60;;
78820;SDS011;68171;13.882;99.692;2024-02-23T01:38:12;14.13;;;9.90;;
78820;SDS011;68171;13.882;99.692;2024-02-23T01:39:22;14.23;;;10.35;;
78820;SDS011;68171;13.882;99.692;2024-02-23T01:40:27;16.98;;;9.13;;
78820;SDS011;68171;13.882;99.692;2024-02-23T01:41:34;13.07;;;9.25;;
78820;SDS011;68171;13.882;99.692;2024-02-23T01:42:39;15.43;;;9.80;;
78820;SDS011;68171;13.882;99.692;2024-02-23T01:43:46;12.65;;;9.20;;
78820;SDS011;68171;13.882;99.692;2024-02-23T01:44:53;13.93;;;9.80;;
78820;SDS011;68171;13.882;99.692;2024-02-23T01:46:00;16.65;;;10.05;;
78820;SDS011;68171;13.882;99.692;2024-02-23T01:47:07;13.52;;;9.60;;
78820;SDS011;68171;13.882;99.692;2024-02-23T01:48:14;15.17;;;10.40;;
78820;SDS011;68171;13.882;99.692;2024-02-23T01:49:19;11.85;;;9.70;;
78820;SDS011;68171;13.882;99.692;2024-02-23T01:50:32;14.70;;;9.77;;
78820;SDS011;68171;13.882;99.692;2024-02-23T01:51:38;15.45;;;9.70;;
78820;SDS011;68171;13.882;99.692;2024-02-23T01:52:45;12.95;;;9.55;;
78820;SDS011;68171;13.882;99.692;2024-02-23T01:53:50;12.27;;;9.15;;
78820;SDS011;68171;13.882;99.692;2024-02-23T01:54:57;16.58;;;10.43;;
78820;SDS011;68171;13.882;99.692;2024-02-23T01:56:04;15.23;;;10.82;;
78820;SDS011;68171;13.882;99.692;2024-02-23T01:57:11;17.70;;;10.90;;
78820;SDS011;68171;13.882;99.692;2024-02-23T01:58:36;17.77;;;11.02;;
78820;SDS011;68171;13.882;99.692;2024-02-23T01:59:43;14.43;;;10.90;;
78820;SDS011;68171;13.882;99.692;2024-02-23T02:00:49;16.42;;;11.57;;
78820;SDS011;68171;13.882;99.692;2024-02-23T02:01:55;15.18;;;10.85;;
78820;SDS011;68171;13.882;99.692;2024-02-23T02:03:02;14.90;;;10.43;;
78820;SDS011;68171;13.882;99.692;2024-02-23T02:04:13;16.35;;;9.98;;
78820;SDS011;68171;13.882;99.692;2024-02-23T02:05:19;12.77;;;9.98;;
78820;SDS011;68171;13.882;99.692;2024-02-23T02:06:25;13.15;;;9.80;;
78820;SDS011;68171;13.882;99.692;2024-02-23T02:07:31;15.85;;;10.23;;
78820;SDS011;68171;13.882;99.692;2024-02-23T02:08:37;14.95;;;10.07;;
78820;SDS011;68171;13.882;99.692;2024-02-23T02:09:43;14.02;;;8.80;;
78820;SDS011;68171;13.882;99.692;2024-02-23T02:10:53;14.77;;;9.93;;
78820;SDS011;68171;13.882;99.692;2024-02-23T02:11:58;14.30;;;9.80;;
78820;SDS011;68171;13.882;99.692;2024-02-23T02:13:05;13.35;;;9.63;;
78820;SDS011;68171;13.882;99.692;2024-02-23T02:14:11;17.17;;;10.65;;
78820;SDS011;68171;13.882;99.692;2024-02-23T02:15:19;16.13;;;10.90;;
78820;SDS011;68171;13.882;99.692;2024-02-23T02:16:25;13.48;;;10.13;;
78820;SDS011;68171;13.882;99.692;2024-02-23T02:17:32;14.65;;;10.48;;
78820;SDS011;68171;13.882;99.692;2024-02-23T02:18:41;13.73;;;9.25;;
78820;SDS011;68171;13.882;99.692;2024-02-23T02:19:48;13.15;;;9.65;;
78820;SDS011;68171;13.882;99.692;2024-02-23T02:20:54;12.63;;;9.50;;
78820;SDS011;68171;13.882;99.692;2024-02-23T02:22:01;13.23;;;9.57;;
78820;SDS011;68171;13.882;99.692;2024-02-23T02:23:06;12.00;;;9.43;;
78820;SDS011;68171;13.882;99.692;2024-02-23T02:24:14;13.48;;;9.48;;
78820;SDS011;68171;13.882;99.692;2024-02-23T02:25:19;14.02;;;9.32;;
78820;SDS011;68171;13.882;99.692;2024-02-23T02:26:26;13.40;;;9.80;;
78820;SDS011;68171;13.882;99.692;2024-02-23T02:27:31;12.70;;;9.60;;
78820;SDS011;68171;13.882;99.692;2024-02-23T02:28:38;15.48;;;10.23;;
78820;SDS011;68171;13.882;99.692;2024-02-23T02:29:43;13.95;;;9.77;;
78820;SDS011;68171;13.882;99.692;2024-02-23T02:30:50;13.75;;;8.77;;
78820;SDS011;68171;13.882;99.692;2024-02-23T02:31:56;14.13;;;8.77;;
78820;SDS011;68171;13.882;99.692;2024-02-23T02:33:02;15.77;;;9.13;;
78820;SDS011;68171;13.882;99.692;2024-02-23T02:34:10;12.65;;;9.45;;
78820;SDS011;68171;13.882;99.692;2024-02-23T02:35:18;13.00;;;8.75;;
78820;SDS011;68171;13.882;99.692;2024-02-23T02:36:23;13.65;;;8.85;;
78820;SDS011;68171;13.882;99.692;2024-02-23T02:37:30;12.45;;;8.55;;
78820;SDS011;68171;13.882;99.692;2024-02-23T02:38:35;15.38;;;9.82;;
78820;SDS011;68171;13.882;99.692;2024-02-23T02:39:42;13.98;;;9.27;;
78820;SDS011;68171;13.882;99.692;2024-02-23T02:40:48;11.57;;;8.68;;
78820;SDS011;68171;13.882;99.692;2024-02-23T02:41:55;13.68;;;9.50;;
78820;SDS011;68171;13.882;99.692;2024-02-23T02:43:00;12.52;;;8.38;;
78820;SDS011;68171;13.882;99.692;2024-02-23T02:44:07;13.20;;;8.70;;
78820;SDS011;68171;13.882;99.692;2024-02-23T02:45:13;15.55;;;9.10;;
78820;SDS011;68171;13.882;99.692;2024-02-23T02:46:21;12.55;;;8.60;;
78820;SDS011;68171;13.882;99.692;2024-02-23T02:47:27;15.93;;;8.82;;
78820;SDS011;68171;13.882;99.692;2024-02-23T02:48:34;12.27;;;8.73;;
78820;SDS011;68171;13.882;99.692;2024-02-23T02:49:41;13.40;;;9.32;;
78820;SDS011;68171;13.882;99.692;2024-02-23T02:50:48;15.05;;;9.98;;
78820;SDS011;68171;13.882;99.692;2024-02-23T02:51:55;15.82;;;10.10;;
78820;SDS011;68171;13.882;99.692;2024-02-23T02:53:02;13.60;;;9.13;;
78820;SDS011;68171;13.882;99.692;2024-02-23T02:54:07;12.45;;;9.43;;
78820;SDS011;68171;13.882;99.692;2024-02-23T02:55:14;13.37;;;9.33;;
78820;SDS011;68171;13.882;99.692;2024-02-23T02:56:19;12.23;;;8.43;;
78820;SDS011;68171;13.882;99.692;2024-02-23T02:57:26;13.18;;;9.45;;
78820;SDS011;68171;13.882;99.692;2024-02-23T02:58:33;14.43;;;9.25;;
78820;SDS011;68171;13.882;99.692;2024-02-23T02:59:40;14.43;;;8.90;;
78820;SDS011;68171;13.882;99.692;2024-02-23T03:00:45;14.50;;;9.18;;
78820;SDS011;68171;13.882;99.692;2024-02-23T03:01:52;13.52;;;9.60;;
78820;SDS011;68171;13.882;99.692;2024-02-23T03:02:58;14.38;;;10.15;;
78820;SDS011;68171;13.882;99.692;2024-02-23T03:04:05;15.07;;;11.48;;
78820;SDS011;68171;13.882;99.692;2024-02-23T03:05:12;20.35;;;12.75;;
78820;SDS011;68171;13.882;99.692;2024-02-23T03:06:19;17.97;;;12.87;;
78820;SDS011;68171;13.882;99.692;2024-02-23T03:07:24;16.85;;;13.90;;
78820;SDS011;68171;13.882;99.692;2024-02-23T03:08:31;19.52;;;12.50;;
78820;SDS011;68171;13.882;99.692;2024-02-23T03:09:36;15.80;;;11.75;;
78820;SDS011;68171;13.882;99.692;2024-02-23T03:10:43;20.90;;;15.43;;
78820;SDS011;68171;13.882;99.692;2024-02-23T03:11:48;25.38;;;18.90;;
78820;SDS011;68171;13.882;99.692;2024-02-23T03:12:55;19.55;;;15.15;;
78820;SDS011;68171;13.882;99.692;2024-02-23T03:14:00;18.20;;;13.45;;
78820;SDS011;68171;13.882;99.692;2024-02-23T03:15:07;14.18;;;10.13;;
78820;SDS011;68171;13.882;99.692;2024-02-23T03:16:14;15.07;;;10.15;;
78820;SDS011;68171;13.882;99.692;2024-02-23T03:17:20;13.80;;;9.60;;
78820;SDS011;68171;13.882;99.692;2024-02-23T03:18:27;13.73;;;10.00;;
78820;SDS011;68171;13.882;99.692;2024-02-23T03:19:32;15.55;;;10.15;;
78820;SDS011;68171;13.882;99.692;2024-02-23T03:20:41;13.18;;;9.85;;
78820;SDS011;68171;13.882;99.692;2024-02-23T03:21:47;14.85;;;9.55;;
78820;SDS011;68171;13.882;99.692;2024-02-23T03:22:53;18.95;;;11.27;;
78820;SDS011;68171;13.882;99.692;2024-02-23T03:23:58;12.43;;;9.65;;
78820;SDS011;68171;13.882;99.692;2024-02-23T03:25:06;15.07;;;10.73;;
78820;SDS011;68171;13.882;99.692;2024-02-23T03:26:12;16.40;;;11.13;;
78820;SDS011;68171;13.882;99.692;2024-02-23T03:27:21;16.90;;;12.13;;
78820;SDS011;68171;13.882;99.692;2024-02-23T03:28:31;19.33;;;10.80;;
78820;SDS011;68171;13.882;99.692;2024-02-23T03:29:38;15.52;;;10.70;;
78820;SDS011;68171;13.882;99.692;2024-02-23T03:30:44;14.77;;;12.32;;
78820;SDS011;68171;13.882;99.692;2024-02-23T03:31:50;18.25;;;13.90;;
78820;SDS011;68171;13.882;99.692;2024-02-23T03:32:56;15.95;;;11.75;;
78820;SDS011;68171;13.882;99.692;2024-02-23T03:34:02;15.00;;;10.32;;
78820;SDS011;68171;13.882;99.692;2024-02-23T03:35:08;12.25;;;9.73;;
78820;SDS011;68171;13.882;99.692;2024-02-23T03:36:16;15.85;;;10.55;;
78820;SDS011;68171;13.882;99.692;2024-02-23T03:37:22;12.95;;;9.65;;
78820;SDS011;68171;13.882;99.692;2024-02-23T03:38:28;14.38;;;10.15;;
78820;SDS011;68171;13.882;99.692;2024-02-23T03:39:34;12.20;;;8.77;;
78820;SDS011;68171;13.882;99.692;2024-02-23T03:40:41;17.92;;;10.02;;
78820;SDS011;68171;13.882;99.692;2024-02-23T03:41:46;14.68;;;8.95;;
78820;SDS011;68171;13.882;99.692;2024-02-23T03:42:53;15.35;;;11.15;;
78820;SDS011;68171;13.882;99.692;2024-02-23T03:43:59;14.00;;;10.85;;
78820;SDS011;68171;13.882;99.692;2024-02-23T03:45:05;15.02;;;10.27;;
78820;SDS011;68171;13.882;99.692;2024-02-23T03:46:11;15.55;;;10.27;;
78820;SDS011;68171;13.882;99.692;2024-02-23T03:47:18;15.35;;;10.43;;
78820;SDS011;68171;13.882;99.692;2024-02-23T03:48:23;16.27;;;10.68;;
78820;SDS011;68171;13.882;99.692;2024-02-23T03:49:30;15.57;;;9.90;;
78820;SDS011;68171;13.882;99.692;2024-02-23T03:50:36;13.33;;;9.63;;
78820;SDS011;68171;13.882;99.692;2024-02-23T03:51:44;15.73;;;10.65;;
78820;SDS011;68171;13.882;99.692;2024-02-23T03:52:50;14.48;;;10.45;;
78820;SDS011;68171;13.882;99.692;2024-02-23T03:53:56;15.25;;;9.40;;
78820;SDS011;68171;13.882;99.692;2024-02-23T03:55:02;15.40;;;10.48;;
78820;SDS011;68171;13.882;99.692;2024-02-23T03:56:09;12.88;;;9.32;;
78820;SDS011;68171;13.882;99.692;2024-02-23T03:57:14;20.45;;;10.05;;
78820;SDS011;68171;13.882;99.692;2024-02-23T03:58:21;13.63;;;9.07;;
78820;SDS011;68171;13.882;99.692;2024-02-23T03:59:26;13.75;;;9.55;;
78820;SDS011;68171;13.882;99.692;2024-02-23T04:00:31;13.75;;;9.75;;
78820;SDS011;68171;13.882;99.692;2024-02-23T04:01:38;13.63;;;9.33;;
78820;SDS011;68171;13.882;99.692;2024-02-23T04:02:44;15.30;;;9.70;;
78820;SDS011;68171;13.882;99.692;2024-02-23T04:03:51;13.93;;;9.00;;
78820;SDS011;68171;13.882;99.692;2024-02-23T04:04:56;11.10;;;8.82;;
78820;SDS011;68171;13.882;99.692;2024-02-23T04:06:03;14.90;;;9.68;;
78820;SDS011;68171;13.882;99.692;2024-02-23T04:07:10;12.48;;;9.55;;
78820;SDS011;68171;13.882;99.692;2024-02-23T04:08:17;12.55;;;9.38;;
78820;SDS011;68171;13.882;99.692;2024-02-23T04:09:22;18.08;;;8.93;;
78820;SDS011;68171;13.882;99.692;2024-02-23T04:10:29;11.88;;;8.90;;
78820;SDS011;68171;13.882;99.692;2024-02-23T04:11:34;10.77;;;8.88;;
78820;SDS011;68171;13.882;99.692;2024-02-23T04:12:41;13.23;;;8.47;;
78820;SDS011;68171;13.882;99.692;2024-02-23T04:13:47;14.83;;;9.97;;
78820;SDS011;68171;13.882;99.692;2024-02-23T04:14:54;14.23;;;8.27;;
78820;SDS011;68171;13.882;99.692;2024-02-23T04:16:00;13.57;;;9.05;;
78820;SDS011;68171;13.882;99.692;2024-02-23T04:17:07;13.88;;;8.48;;
78820;SDS011;68171;13.882;99.692;2024-02-23T04:18:13;12.95;;;9.40;;
78820;SDS011;68171;13.882;99.692;2024-02-23T04:19:19;13.23;;;9.23;;
78820;SDS011;68171;13.882;99.692;2024-02-23T04:20:25;12.68;;;9.57;;
78820;SDS011;68171;13.882;99.692;2024-02-23T04:21:32;12.70;;;9.27;;
78820;SDS011;68171;13.882;99.692;2024-02-23T04:22:39;12.73;;;8.88;;
78820;SDS011;68171;13.882;99.692;2024-02-23T04:23:46;15.33;;;10.00;;
78820;SDS011;68171;13.882;99.692;2024-02-23T04:24:51;14.67;;;9.60;;
78820;SDS011;68171;13.882;99.692;2024-02-23T04:25:58;12.98;;;8.27;;
78820;SDS011;68171;13.882;99.692;2024-02-23T04:27:04;10.95;;;9.02;;
78820;SDS011;68171;13.882;99.692;2024-02-23T04:28:11;12.32;;;8.73;;
78820;SDS011;68171;13.882;99.692;2024-02-23T04:29:17;12.52;;;9.15;;
78820;SDS011;68171;13.882;99.692;2024-02-23T04:30:24;13.75;;;8.77;;
78820;SDS011;68171;13.882;99.692;2024-02-23T04:31:29;12.63;;;8.68;;
78820;SDS011;68171;13.882;99.692;2024-02-23T04:32:36;14.00;;;9.27;;
78820;SDS011;68171;13.882;99.692;2024-02-23T04:33:42;16.17;;;9.35;;
78820;SDS011;68171;13.882;99.692;2024-02-23T04:34:48;15.63;;;10.47;;
78820;SDS011;68171;13.882;99.692;2024-02-23T04:35:54;12.93;;;9.33;;
78820;SDS011;68171;13.882;99.692;2024-02-23T04:37:00;15.60;;;9.77;;
78820;SDS011;68171;13.882;99.692;2024-02-23T04:38:09;12.05;;;9.77;;
78820;SDS011;68171;13.882;99.692;2024-02-23T04:39:14;11.77;;;9.02;;
78820;SDS011;68171;13.882;99.692;2024-02-23T04:40:21;11.30;;;8.75;;
78820;SDS011;68171;13.882;99.692;2024-02-23T04:41:26;15.85;;;10.25;;
78820;SDS011;68171;13.882;99.692;2024-02-23T04:42:33;14.30;;;8.98;;
78820;SDS011;68171;13.882;99.692;2024-02-23T04:43:38;10.70;;;8.95;;
78820;SDS011;68171;13.882;99.692;2024-02-23T04:44:45;13.27;;;9.00;;
78820;SDS011;68171;13.882;99.692;2024-02-23T04:45:52;13.77;;;9.07;;
78820;SDS011;68171;13.882;99.692;2024-02-23T04:46:59;14.23;;;9.77;;
78820;SDS011;68171;13.882;99.692;2024-02-23T04:48:05;11.48;;;8.95;;
78820;SDS011;68171;13.882;99.692;2024-02-23T04:49:12;12.43;;;8.23;;
78820;SDS011;68171;13.882;99.692;2024-02-23T04:50:17;11.68;;;9.20;;
78820;SDS011;68171;13.882;99.692;2024-02-23T04:51:24;12.73;;;9.10;;
78820;SDS011;68171;13.882;99.692;2024-02-23T04:52:29;12.80;;;8.70;;
78820;SDS011;68171;13.882;99.692;2024-02-23T04:53:38;11.95;;;9.00;;
78820;SDS011;68171;13.882;99.692;2024-02-23T04:54:43;14.15;;;9.10;;
78820;SDS011;68171;13.882;99.692;2024-02-23T04:55:50;14.38;;;8.90;;
78820;SDS011;68171;13.882;99.692;2024-02-23T04:56:56;11.03;;;9.00;;
78820;SDS011;68171;13.882;99.692;2024-02-23T04:58:02;12.63;;;9.57;;
78820;SDS011;68171;13.882;99.692;2024-02-23T04:59:08;11.65;;;8.45;;
78820;SDS011;68171;13.882;99.692;2024-02-23T05:00:15;11.93;;;8.65;;
78820;SDS011;68171;13.882;99.692;2024-02-23T05:01:20;13.43;;;8.20;;
78820;SDS011;68171;13.882;99.692;2024-02-23T05:02:27;13.88;;;8.77;;
78820;SDS011;68171;13.882;99.692;2024-02-23T05:03:38;11.68;;;8.88;;
78820;SDS011;68171;13.882;99.692;2024-02-23T05:04:45;11.20;;;9.20;;
78820;SDS011;68171;13.882;99.692;2024-02-23T05:05:51;12.50;;;9.38;;
78820;SDS011;68171;13.882;99.692;2024-02-23T05:06:58;10.18;;;7.88;;
78820;SDS011;68171;13.882;99.692;2024-02-23T05:08:05;11.47;;;8.60;;
78820;SDS011;68171;13.882;99.692;2024-02-23T05:09:13;12.73;;;9.43;;
78820;SDS011;68171;13.882;99.692;2024-02-23T05:10:19;13.30;;;9.43;;
78820;SDS011;68171;13.882;99.692;2024-02-23T05:11:26;11.40;;;8.30;;
78820;SDS011;68171;13.882;99.692;2024-02-23T05:12:31;10.45;;;8.07;;
78820;SDS011;68171;13.882;99.692;2024-02-23T05:13:38;12.63;;;8.65;;
78820;SDS011;68171;13.882;99.692;2024-02-23T05:14:45;12.18;;;9.05;;
78820;SDS011;68171;13.882;99.692;2024-02-23T05:15:54;12.25;;;7.80;;
78820;SDS011;68171;13.882;99.692;2024-02-23T05:17:00;10.40;;;8.32;;
78820;SDS011;68171;13.882;99.692;2024-02-23T05:18:07;12.60;;;8.90;;
78820;SDS011;68171;13.882;99.692;2024-02-23T05:19:12;10.47;;;7.27;;
78820;SDS011;68171;13.882;99.692;2024-02-23T05:20:19;11.00;;;6.37;;
78820;SDS011;68171;13.882;99.692;2024-02-23T05:21:25;11.05;;;8.07;;
78820;SDS011;68171;13.882;99.692;2024-02-23T05:22:32;9.00;;;6.88;;
78820;SDS011;68171;13.882;99.692;2024-02-23T05:23:37;9.13;;;6.32;;
78820;SDS011;68171;13.882;99.692;2024-02-23T05:24:45;10.23;;;7.13;;
78820;SDS011;68171;13.882;99.692;2024-02-23T05:25:51;11.32;;;8.45;;
78820;SDS011;68171;13.882;99.692;2024-02-23T05:26:57;8.82;;;6.90;;
78820;SDS011;68171;13.882;99.692;2024-02-23T05:28:05;9.23;;;7.25;;
78820;SDS011;68171;13.882;99.692;2024-02-23T05:29:12;10.43;;;7.38;;
78820;SDS011;68171;13.882;99.692;2024-02-23T05:30:21;11.10;;;7.90;;
78820;SDS011;68171;13.882;99.692;2024-02-23T05:31:43;9.30;;;7.07;;
78820;SDS011;68171;13.882;99.692;2024-02-23T05:32:50;12.93;;;7.93;;
78820;SDS011;68171;13.882;99.692;2024-02-23T05:33:56;11.20;;;7.50;;
78820;SDS011;68171;13.882;99.692;2024-02-23T05:35:02;12.30;;;8.13;;
78820;SDS011;68171;13.882;99.692;2024-02-23T05:36:09;10.93;;;7.93;;
78820;SDS011;68171;13.882;99.692;2024-02-23T05:37:14;9.27;;;7.68;;
78820;SDS011;68171;13.882;99.692;2024-02-23T05:38:21;10.82;;;8.32;;
78820;SDS011;68171;13.882;99.692;2024-02-23T05:39:27;13.90;;;8.38;;
78820;SDS011;68171;13.882;99.692;2024-02-23T05:40:36;10.63;;;7.63;;
78820;SDS011;68171;13.882;99.692;2024-02-23T05:41:42;11.00;;;7.87;;
78820;SDS011;68171;13.882;99.692;2024-02-23T05:42:48;11.10;;;7.53;;
78820;SDS011;68171;13.882;99.692;2024-02-23T05:43:54;10.90;;;7.13;;
78820;SDS011;68171;13.882;99.692;2024-02-23T05:45:00;11.05;;;7.63;;
78820;SDS011;68171;13.882;99.692;2024-02-23T05:46:08;11.52;;;7.65;;
78820;SDS011;68171;13.882;99.692;2024-02-23T05:47:13;8.73;;;6.60;;
78820;SDS011;68171;13.882;99.692;2024-02-23T05:48:20;8.65;;;6.45;;
78820;SDS011;68171;13.882;99.692;2024-02-23T05:49:25;9.02;;;6.45;;
78820;SDS011;68171;13.882;99.692;2024-02-23T05:50:32;10.02;;;7.28;;
78820;SDS011;68171;13.882;99.692;2024-02-23T05:51:38;10.15;;;7.30;;
78820;SDS011;68171;13.882;99.692;2024-02-23T05:52:44;9.73;;;6.83;;
78820;SDS011;68171;13.882;99.692;2024-02-23T05:53:50;11.50;;;7.43;;
78820;SDS011;68171;13.882;99.692;2024-02-23T05:54:57;10.65;;;7.15;;
78820;SDS011;68171;13.882;99.692;2024-02-23T05:56:05;9.70;;;7.35;;
78820;SDS011;68171;13.882;99.692;2024-02-23T05:57:12;10.32;;;7.60;;
78820;SDS011;68171;13.882;99.692;2024-02-23T05:58:17;9.52;;;6.57;;
78820;SDS011;68171;13.882;99.692;2024-02-23T05:59:24;9.80;;;7.10;;
78820;SDS011;68171;13.882;99.692;2024-02-23T06:00:31;11.32;;;8.20;;
78820;SDS011;68171;13.882;99.692;2024-02-23T06:01:37;9.95;;;7.68;;
78820;SDS011;68171;13.882;99.692;2024-02-23T06:02:43;11.30;;;8.00;;
78820;SDS011;68171;13.882;99.692;2024-02-23T06:03:50;12.50;;;8.47;;
78820;SDS011;68171;13.882;99.692;2024-02-23T06:04:56;11.40;;;7.37;;
78820;SDS011;68171;13.882;99.692;2024-02-23T06:06:06;9.38;;;7.63;;
78820;SDS011;68171;13.882;99.692;2024-02-23T06:07:12;10.30;;;7.22;;
78820;SDS011;68171;13.882;99.692;2024-02-23T06:08:19;12.27;;;7.63;;
78820;SDS011;68171;13.882;99.692;2024-02-23T06:09:24;9.68;;;7.65;;
78820;SDS011;68171;13.882;99.692;2024-02-23T06:10:31;11.93;;;8.00;;
78820;SDS011;68171;13.882;99.692;2024-02-23T06:11:38;11.60;;;7.97;;
78820;SDS011;68171;13.882;99.692;2024-02-23T06:12:45;10.75;;;7.85;;
78820;SDS011;68171;13.882;99.692;2024-02-23T06:13:50;12.68;;;8.13;;
78820;SDS011;68171;13.882;99.692;2024-02-23T06:14:57;9.60;;;7.30;;
78820;SDS011;68171;13.882;99.692;2024-02-23T06:16:03;11.07;;;7.73;;
78820;SDS011;68171;13.882;99.692;2024-02-23T06:17:10;9.02;;;7.18;;
78820;SDS011;68171;13.882;99.692;2024-02-23T06:18:15;10.70;;;7.85;;
78820;SDS011;68171;13.882;99.692;2024-02-23T06:19:22;11.90;;;6.78;;
78820;SDS011;68171;13.882;99.692;2024-02-23T06:20:27;10.07;;;7.90;;
78820;SDS011;68171;13.882;99.692;2024-02-23T06:21:35;9.32;;;7.28;;
78820;SDS011;68171;13.882;99.692;2024-02-23T06:22:41;9.90;;;7.30;;
78820;SDS011;68171;13.882;99.692;2024-02-23T06:23:47;11.68;;;7.18;;
78820;SDS011;68171;13.882;99.692;2024-02-23T06:24:53;9.77;;;7.65;;
78820;SDS011;68171;13.882;99.692;2024-02-23T06:25:59;10.47;;;7.33;;
78820;SDS011;68171;13.882;99.692;2024-02-23T06:27:08;9.93;;;6.83;;